sensor_id;sensor_type;location;lat;lon;timestamp;pressure;altitude;pressure_sealevel;temperature;humidity
73422;BME280;61637;47.760;-122.022;2023-05-10T00:00:01;101930.339;;;16.5;unknown
73422;BME280;61637;47.760;-122.022;2023-05-10T00:02:01;101930.339;;;16.4;unknown
73422;BME280;61637;47.760;-122.022;2023-05-10T00:04:01;101930.339;;;16.4;unknown
73422;BME280;61637;47.760;-122.022;2023-05-10T00:06:01;101930.339;;;16.4;unknown
73422;BME280;61637;47.760;-122.022;2023-05-10T00:08:01;101930.339;;;16.4;unknown
73422;BME280;61637;47.760;-122.022;2023-05-10T00:10:01;101930.339;;;16.4;unknown
73422;BME280;61637;47.760;-122.022;2023-05-10T00:12:01;101930.339;;;16.4;unknown
73422;BME280;61637;47.760;-122.022;2023-05-10T00:14:01;101930.339;;;16.4;unknown
73422;BME280;61637;47.760;-122.022;2023-05-10T00:16:01;101930.339;;;16.3;unknown
73422;BME280;61637;47.760;-122.022;2023-05-10T00:18:01;101930.339;;;16.3;unknown
73422;BME280;61637;47.760;-122.022;2023-05-10T00:20:01;101930.339;;;16.3;unknown
73422;BME280;61637;47.760;-122.022;2023-05-10T00:22:01;101930.339;;;16.2;unknown
73422;BME280;61637;47.760;-122.022;2023-05-10T00:24:01;101930.339;;;16.2;unknown
73422;BME280;61637;47.760;-122.022;2023-05-10T00:26:01;101930.339;;;16.3;unknown
73422;BME280;61637;47.760;-122.022;2023-05-10T00:28:01;101930.339;;;16.3;unknown
73422;BME280;61637;47.760;-122.022;2023-05-10T00:30:01;101930.339;;;16.3;unknown
73422;BME280;61637;47.760;-122.022;2023-05-10T00:32:01;101930.339;;;16.3;unknown
73422;BME280;61637;47.760;-122.022;2023-05-10T00:34:01;101930.339;;;16.2;unknown
73422;BME280;61637;47.760;-122.022;2023-05-10T00:36:01;101930.339;;;16.2;unknown
73422;BME280;61637;47.760;-122.022;2023-05-10T00:38:01;101930.339;;;16.2;unknown
73422;BME280;61637;47.760;-122.022;2023-05-10T00:40:01;101930.339;;;16.2;unknown
73422;BME280;61637;47.760;-122.022;2023-05-10T00:42:01;101930.339;;;16.2;unknown
73422;BME280;61637;47.760;-122.022;2023-05-10T00:44:01;101930.339;;;16.2;unknown
73422;BME280;61637;47.760;-122.022;2023-05-10T00:46:01;101930.339;;;16.2;unknown
73422;BME280;61637;47.760;-122.022;2023-05-10T00:48:01;101930.339;;;16.2;unknown
73422;BME280;61637;47.760;-122.022;2023-05-10T00:50:01;101930.339;;;16.2;unknown
73422;BME280;61637;47.760;-122.022;2023-05-10T00:52:01;101930.339;;;16.2;unknown
73422;BME280;61637;47.760;-122.022;2023-05-10T00:54:01;101930.339;;;16.1;unknown
73422;BME280;61637;47.760;-122.022;2023-05-10T00:56:01;101930.339;;;16.1;unknown
73422;BME280;61637;47.760;-122.022;2023-05-10T00:58:01;101930.339;;;16.1;unknown
73422;BME280;61637;47.760;-122.022;2023-05-10T01:00:02;101930.339;;;16.1;unknown
73422;BME280;61637;47.760;-122.022;2023-05-10T01:02:01;101930.339;;;16.0;unknown
73422;BME280;61637;47.760;-122.022;2023-05-10T01:04:01;101930.339;;;16.0;unknown
73422;BME280;61637;47.760;-122.022;2023-05-10T01:06:01;101930.339;;;16.0;unknown
73422;BME280;61637;47.760;-122.022;2023-05-10T01:08:01;101930.339;;;15.9;unknown
73422;BME280;61637;47.760;-122.022;2023-05-10T01:10:01;101930.339;;;15.9;unknown
73422;BME280;61637;47.760;-122.022;2023-05-10T01:12:01;101930.339;;;16.0;unknown
73422;BME280;61637;47.760;-122.022;2023-05-10T01:14:01;101930.339;;;16.0;unknown
73422;BME280;61637;47.760;-122.022;2023-05-10T01:16:01;101930.339;;;15.9;unknown
73422;BME280;61637;47.760;-122.022;2023-05-10T01:18:01;101930.339;;;16.0;unknown
73422;BME280;61637;47.760;-122.022;2023-05-10T01:20:01;101930.339;;;16.0;unknown
73422;BME280;61637;47.760;-122.022;2023-05-10T01:22:04;101930.339;;;15.9;unknown
73422;BME280;61637;47.760;-122.022;2023-05-10T01:24:12;101930.339;;;15.9;unknown
73422;BME280;61637;47.760;-122.022;2023-05-10T01:26:10;101930.339;;;15.9;unknown
73422;BME280;61637;47.760;-122.022;2023-05-10T01:28:07;101930.339;;;15.9;unknown
73422;BME280;61637;47.760;-122.022;2023-05-10T01:30:07;101930.339;;;15.9;unknown
73422;BME280;61637;47.760;-122.022;2023-05-10T01:32:07;101930.339;;;15.9;unknown
73422;BME280;61637;47.760;-122.022;2023-05-10T01:34:02;101930.339;;;15.9;unknown
73422;BME280;61637;47.760;-122.022;2023-05-10T01:36:03;101930.339;;;15.8;unknown
73422;BME280;61637;47.760;-122.022;2023-05-10T01:38:04;101930.339;;;15.8;unknown
73422;BME280;61637;47.760;-122.022;2023-05-10T01:40:03;101930.339;;;15.7;unknown
73422;BME280;61637;47.760;-122.022;2023-05-10T01:42:02;101930.339;;;15.7;unknown
73422;BME280;61637;47.760;-122.022;2023-05-10T01:44:02;101930.339;;;15.6;unknown
73422;BME280;61637;47.760;-122.022;2023-05-10T01:46:02;101930.339;;;15.6;unknown
73422;BME280;61637;47.760;-122.022;2023-05-10T01:48:05;101930.339;;;15.6;unknown
73422;BME280;61637;47.760;-122.022;2023-05-10T01:50:02;101930.339;;;15.6;unknown
73422;BME280;61637;47.760;-122.022;2023-05-10T01:52:04;101930.339;;;15.5;unknown
73422;BME280;61637;47.760;-122.022;2023-05-10T01:54:01;101930.339;;;15.4;unknown
73422;BME280;61637;47.760;-122.022;2023-05-10T01:56:01;101930.339;;;15.4;unknown
73422;BME280;61637;47.760;-122.022;2023-05-10T01:58:05;101930.339;;;15.3;unknown
73422;BME280;61637;47.760;-122.022;2023-05-10T02:00:02;101930.339;;;15.3;unknown
73422;BME280;61637;47.760;-122.022;2023-05-10T02:02:01;101930.339;;;15.3;unknown
73422;BME280;61637;47.760;-122.022;2023-05-10T02:04:01;101930.339;;;15.3;unknown
73422;BME280;61637;47.760;-122.022;2023-05-10T02:06:01;101930.339;;;15.2;unknown
73422;BME280;61637;47.760;-122.022;2023-05-10T02:08:01;101930.339;;;15.2;unknown
73422;BME280;61637;47.760;-122.022;2023-05-10T02:10:01;101930.339;;;15.2;unknown
73422;BME280;61637;47.760;-122.022;2023-05-10T02:12:01;101930.339;;;15.1;unknown
73422;BME280;61637;47.760;-122.022;2023-05-10T02:14:01;101930.339;;;15.1;unknown
73422;BME280;61637;47.760;-122.022;2023-05-10T02:16:01;101930.339;;;15.1;unknown
73422;BME280;61637;47.760;-122.022;2023-05-10T02:18:01;101930.339;;;15.0;unknown
73422;BME280;61637;47.760;-122.022;2023-05-10T02:20:02;101930.339;;;14.9;unknown
73422;BME280;61637;47.760;-122.022;2023-05-10T02:22:01;101930.339;;;14.9;unknown
73422;BME280;61637;47.760;-122.022;2023-05-10T02:24:01;101930.339;;;14.9;unknown
73422;BME280;61637;47.760;-122.022;2023-05-10T02:26:01;101930.339;;;14.9;unknown
73422;BME280;61637;47.760;-122.022;2023-05-10T02:28:01;101930.339;;;14.8;unknown
73422;BME280;61637;47.760;-122.022;2023-05-10T02:30:01;101930.339;;;14.8;unknown
73422;BME280;61637;47.760;-122.022;2023-05-10T02:32:01;101930.339;;;14.8;unknown
73422;BME280;61637;47.760;-122.022;2023-05-10T02:34:01;101930.339;;;14.7;unknown
73422;BME280;61637;47.760;-122.022;2023-05-10T02:36:01;101930.339;;;14.7;unknown
73422;BME280;61637;47.760;-122.022;2023-05-10T02:38:01;101930.339;;;14.7;unknown
73422;BME280;61637;47.760;-122.022;2023-05-10T02:40:01;101930.339;;;14.6;unknown
73422;BME280;61637;47.760;-122.022;2023-05-10T02:42:01;101930.339;;;14.6;unknown
73422;BME280;61637;47.760;-122.022;2023-05-10T02:44:01;101930.339;;;14.6;unknown
73422;BME280;61637;47.760;-122.022;2023-05-10T02:46:01;101930.339;;;14.5;unknown
73422;BME280;61637;47.760;-122.022;2023-05-10T02:48:01;101930.339;;;14.4;unknown
73422;BME280;61637;47.760;-122.022;2023-05-10T02:50:01;101930.339;;;14.4;unknown
73422;BME280;61637;47.760;-122.022;2023-05-10T02:52:01;101930.339;;;14.3;unknown
73422;BME280;61637;47.760;-122.022;2023-05-10T02:54:02;101930.339;;;14.3;unknown
73422;BME280;61637;47.760;-122.022;2023-05-10T02:56:01;101930.339;;;14.2;unknown
73422;BME280;61637;47.760;-122.022;2023-05-10T02:58:01;101930.339;;;14.1;unknown
73422;BME280;61637;47.760;-122.022;2023-05-10T03:00:01;101930.339;;;14.1;unknown
73422;BME280;61637;47.760;-122.022;2023-05-10T03:02:01;101930.339;;;14.0;unknown
73422;BME280;61637;47.760;-122.022;2023-05-10T03:04:01;101930.339;;;13.9;unknown
73422;BME280;61637;47.760;-122.022;2023-05-10T03:06:01;101930.339;;;13.8;unknown
73422;BME280;61637;47.760;-122.022;2023-05-10T03:08:01;101930.339;;;13.8;unknown
73422;BME280;61637;47.760;-122.022;2023-05-10T03:10:01;101930.339;;;13.7;unknown
73422;BME280;61637;47.760;-122.022;2023-05-10T03:12:02;101930.339;;;13.7;unknown
73422;BME280;61637;47.760;-122.022;2023-05-10T03:14:04;101930.339;;;13.6;unknown
73422;BME280;61637;47.760;-122.022;2023-05-10T03:16:04;101930.339;;;13.5;unknown
73422;BME280;61637;47.760;-122.022;2023-05-10T03:18:01;101930.339;;;13.4;unknown
73422;BME280;61637;47.760;-122.022;2023-05-10T03:20:03;101930.339;;;13.3;unknown
73422;BME280;61637;47.760;-122.022;2023-05-10T03:22:03;101930.339;;;13.3;unknown
73422;BME280;61637;47.760;-122.022;2023-05-10T03:24:03;101930.339;;;13.2;unknown
73422;BME280;61637;47.760;-122.022;2023-05-10T03:26:01;101930.339;;;13.2;unknown
73422;BME280;61637;47.760;-122.022;2023-05-10T03:28:01;101930.339;;;13.1;unknown
73422;BME280;61637;47.760;-122.022;2023-05-10T03:30:01;101930.339;;;13.1;unknown
73422;BME280;61637;47.760;-122.022;2023-05-10T03:32:01;101930.339;;;12.9;unknown
73422;BME280;61637;47.760;-122.022;2023-05-10T03:34:01;101930.339;;;12.9;unknown
73422;BME280;61637;47.760;-122.022;2023-05-10T03:36:01;101930.339;;;12.8;unknown
73422;BME280;61637;47.760;-122.022;2023-05-10T03:38:01;101930.339;;;12.8;unknown
73422;BME280;61637;47.760;-122.022;2023-05-10T03:40:01;101930.339;;;12.7;unknown
73422;BME280;61637;47.760;-122.022;2023-05-10T03:42:01;101930.339;;;12.6;unknown
73422;BME280;61637;47.760;-122.022;2023-05-10T03:44:01;101930.339;;;12.6;unknown
73422;BME280;61637;47.760;-122.022;2023-05-10T03:46:01;101930.339;;;12.4;unknown
73422;BME280;61637;47.760;-122.022;2023-05-10T03:48:01;101930.339;;;12.4;unknown
73422;BME280;61637;47.760;-122.022;2023-05-10T03:50:01;101930.339;;;12.3;unknown
73422;BME280;61637;47.760;-122.022;2023-05-10T03:52:01;101930.339;;;12.3;unknown
73422;BME280;61637;47.760;-122.022;2023-05-10T03:54:01;101930.339;;;12.2;unknown
73422;BME280;61637;47.760;-122.022;2023-05-10T03:56:01;101930.339;;;12.2;unknown
73422;BME280;61637;47.760;-122.022;2023-05-10T03:58:01;101930.339;;;12.2;unknown
73422;BME280;61637;47.760;-122.022;2023-05-10T04:00:01;101930.339;;;12.1;unknown
73422;BME280;61637;47.760;-122.022;2023-05-10T04:02:01;101930.339;;;12.1;unknown
73422;BME280;61637;47.760;-122.022;2023-05-10T04:04:01;101930.339;;;12.1;unknown
73422;BME280;61637;47.760;-122.022;2023-05-10T04:06:01;101930.339;;;12.0;unknown
73422;BME280;61637;47.760;-122.022;2023-05-10T04:08:01;101930.339;;;11.9;unknown
73422;BME280;61637;47.760;-122.022;2023-05-10T04:10:01;101930.339;;;11.9;unknown
73422;BME280;61637;47.760;-122.022;2023-05-10T04:12:01;101930.339;;;11.8;unknown
73422;BME280;61637;47.760;-122.022;2023-05-10T04:14:01;101930.339;;;11.8;unknown
73422;BME280;61637;47.760;-122.022;2023-05-10T04:16:01;101930.339;;;11.7;unknown
73422;BME280;61637;47.760;-122.022;2023-05-10T04:18:01;101930.339;;;11.7;unknown
73422;BME280;61637;47.760;-122.022;2023-05-10T04:20:01;101930.339;;;11.6;unknown
73422;BME280;61637;47.760;-122.022;2023-05-10T04:22:02;101930.339;;;11.6;unknown
73422;BME280;61637;47.760;-122.022;2023-05-10T04:24:01;101930.339;;;11.5;unknown
73422;BME280;61637;47.760;-122.022;2023-05-10T04:26:01;101930.339;;;11.5;unknown
73422;BME280;61637;47.760;-122.022;2023-05-10T04:28:01;101930.339;;;11.4;unknown
73422;BME280;61637;47.760;-122.022;2023-05-10T04:30:01;101930.339;;;11.4;unknown
73422;BME280;61637;47.760;-122.022;2023-05-10T04:32:01;101930.339;;;11.3;unknown
73422;BME280;61637;47.760;-122.022;2023-05-10T04:34:01;101930.339;;;11.3;unknown
73422;BME280;61637;47.760;-122.022;2023-05-10T04:36:01;101930.339;;;11.3;unknown
73422;BME280;61637;47.760;-122.022;2023-05-10T04:38:01;101930.339;;;11.2;unknown
73422;BME280;61637;47.760;-122.022;2023-05-10T04:40:01;101930.339;;;11.2;unknown
73422;BME280;61637;47.760;-122.022;2023-05-10T04:42:01;101930.339;;;11.2;unknown
73422;BME280;61637;47.760;-122.022;2023-05-10T04:44:01;101930.339;;;11.2;unknown
73422;BME280;61637;47.760;-122.022;2023-05-10T04:46:01;101930.339;;;11.1;unknown
73422;BME280;61637;47.760;-122.022;2023-05-10T04:48:01;101930.339;;;11.0;unknown
73422;BME280;61637;47.760;-122.022;2023-05-10T04:50:01;101930.339;;;10.9;unknown
73422;BME280;61637;47.760;-122.022;2023-05-10T04:52:01;101930.339;;;10.8;unknown
73422;BME280;61637;47.760;-122.022;2023-05-10T04:54:01;101930.339;;;10.8;unknown
73422;BME280;61637;47.760;-122.022;2023-05-10T04:56:01;101930.339;;;10.8;unknown
73422;BME280;61637;47.760;-122.022;2023-05-10T04:58:01;101930.339;;;10.7;unknown
73422;BME280;61637;47.760;-122.022;2023-05-10T05:00:01;101930.339;;;10.7;unknown
73422;BME280;61637;47.760;-122.022;2023-05-10T05:02:01;101930.339;;;10.6;unknown
73422;BME280;61637;47.760;-122.022;2023-05-10T05:04:01;101930.339;;;10.6;unknown
73422;BME280;61637;47.760;-122.022;2023-05-10T05:06:01;101930.339;;;10.5;unknown
73422;BME280;61637;47.760;-122.022;2023-05-10T05:08:01;101930.339;;;10.4;unknown
73422;BME280;61637;47.760;-122.022;2023-05-10T05:10:01;101930.339;;;10.4;unknown
73422;BME280;61637;47.760;-122.022;2023-05-10T05:12:01;101930.339;;;10.3;unknown
73422;BME280;61637;47.760;-122.022;2023-05-10T05:14:01;101930.339;;;10.3;unknown
73422;BME280;61637;47.760;-122.022;2023-05-10T05:16:01;101930.339;;;10.2;unknown
73422;BME280;61637;47.760;-122.022;2023-05-10T05:18:01;101930.339;;;10.2;unknown
73422;BME280;61637;47.760;-122.022;2023-05-10T05:20:01;101930.339;;;10.2;unknown
73422;BME280;61637;47.760;-122.022;2023-05-10T05:22:01;101930.339;;;10.1;unknown
73422;BME280;61637;47.760;-122.022;2023-05-10T05:24:01;101930.339;;;10.1;unknown
73422;BME280;61637;47.760;-122.022;2023-05-10T05:26:01;101930.339;;;10.0;unknown
73422;BME280;61637;47.760;-122.022;2023-05-10T05:28:01;101930.339;;;9.9;unknown
73422;BME280;61637;47.760;-122.022;2023-05-10T05:30:01;101930.339;;;9.9;unknown
73422;BME280;61637;47.760;-122.022;2023-05-10T05:32:01;101930.339;;;9.8;unknown
73422;BME280;61637;47.760;-122.022;2023-05-10T05:34:01;101930.339;;;9.8;unknown
73422;BME280;61637;47.760;-122.022;2023-05-10T05:36:01;101930.339;;;9.8;unknown
73422;BME280;61637;47.760;-122.022;2023-05-10T05:38:01;101930.339;;;9.7;unknown
73422;BME280;61637;47.760;-122.022;2023-05-10T05:40:01;101930.339;;;9.7;unknown
73422;BME280;61637;47.760;-122.022;2023-05-10T05:42:01;101930.339;;;9.7;unknown
73422;BME280;61637;47.760;-122.022;2023-05-10T05:44:01;101930.339;;;9.7;unknown
73422;BME280;61637;47.760;-122.022;2023-05-10T05:46:01;101930.339;;;9.6;unknown
73422;BME280;61637;47.760;-122.022;2023-05-10T05:48:01;101930.339;;;9.6;unknown
73422;BME280;61637;47.760;-122.022;2023-05-10T05:50:01;101930.339;;;9.6;unknown
73422;BME280;61637;47.760;-122.022;2023-05-10T05:52:01;101930.339;;;9.5;unknown
73422;BME280;61637;47.760;-122.022;2023-05-10T05:54:01;101930.339;;;9.4;unknown
73422;BME280;61637;47.760;-122.022;2023-05-10T05:56:01;101930.339;;;9.4;unknown
73422;BME280;61637;47.760;-122.022;2023-05-10T05:58:01;101930.339;;;9.4;unknown
73422;BME280;61637;47.760;-122.022;2023-05-10T06:00:01;101930.339;;;9.3;unknown
73422;BME280;61637;47.760;-122.022;2023-05-10T06:02:01;101930.339;;;9.3;unknown
73422;BME280;61637;47.760;-122.022;2023-05-10T06:04:01;101930.339;;;9.3;unknown
73422;BME280;61637;47.760;-122.022;2023-05-10T06:06:01;101930.339;;;9.3;unknown
73422;BME280;61637;47.760;-122.022;2023-05-10T06:08:01;101930.339;;;9.2;unknown
73422;BME280;61637;47.760;-122.022;2023-05-10T06:10:01;101930.339;;;9.2;unknown
73422;BME280;61637;47.760;-122.022;2023-05-10T06:12:01;101930.339;;;9.2;unknown
73422;BME280;61637;47.760;-122.022;2023-05-10T06:14:01;101930.339;;;9.1;unknown
73422;BME280;61637;47.760;-122.022;2023-05-10T06:16:01;101930.339;;;9.1;unknown
73422;BME280;61637;47.760;-122.022;2023-05-10T06:18:01;101930.339;;;9.0;unknown
73422;BME280;61637;47.760;-122.022;2023-05-10T06:20:01;101930.339;;;9.0;unknown
73422;BME280;61637;47.760;-122.022;2023-05-10T06:22:01;101930.339;;;8.9;unknown
73422;BME280;61637;47.760;-122.022;2023-05-10T06:24:01;101930.339;;;8.9;unknown
73422;BME280;61637;47.760;-122.022;2023-05-10T06:26:01;101930.339;;;8.8;unknown
73422;BME280;61637;47.760;-122.022;2023-05-10T06:28:01;101930.339;;;8.8;unknown
73422;BME280;61637;47.760;-122.022;2023-05-10T06:30:01;101930.339;;;8.8;unknown
73422;BME280;61637;47.760;-122.022;2023-05-10T06:32:01;101930.339;;;8.8;unknown
73422;BME280;61637;47.760;-122.022;2023-05-10T06:34:01;101930.339;;;8.7;unknown
73422;BME280;61637;47.760;-122.022;2023-05-10T06:36:01;101930.339;;;8.7;unknown
73422;BME280;61637;47.760;-122.022;2023-05-10T06:38:01;101930.339;;;8.7;unknown
73422;BME280;61637;47.760;-122.022;2023-05-10T06:40:01;101930.339;;;8.6;unknown
73422;BME280;61637;47.760;-122.022;2023-05-10T06:42:01;101930.339;;;8.6;unknown
73422;BME280;61637;47.760;-122.022;2023-05-10T06:44:01;101930.339;;;8.6;unknown
73422;BME280;61637;47.760;-122.022;2023-05-10T06:46:01;101930.339;;;8.5;unknown
73422;BME280;61637;47.760;-122.022;2023-05-10T06:48:01;101930.339;;;8.4;unknown
73422;BME280;61637;47.760;-122.022;2023-05-10T06:50:01;101930.339;;;8.4;unknown
73422;BME280;61637;47.760;-122.022;2023-05-10T06:52:01;101930.339;;;8.3;unknown
73422;BME280;61637;47.760;-122.022;2023-05-10T06:54:01;101930.339;;;8.3;unknown
73422;BME280;61637;47.760;-122.022;2023-05-10T06:56:01;101930.339;;;8.3;unknown
73422;BME280;61637;47.760;-122.022;2023-05-10T06:58:01;101930.339;;;8.3;unknown
73422;BME280;61637;47.760;-122.022;2023-05-10T07:00:01;101930.339;;;8.2;unknown
73422;BME280;61637;47.760;-122.022;2023-05-10T07:02:01;101930.339;;;8.2;unknown
73422;BME280;61637;47.760;-122.022;2023-05-10T07:04:01;101930.339;;;8.2;unknown
73422;BME280;61637;47.760;-122.022;2023-05-10T07:06:01;101930.339;;;8.1;unknown
73422;BME280;61637;47.760;-122.022;2023-05-10T07:08:01;101930.339;;;8.1;unknown
73422;BME280;61637;47.760;-122.022;2023-05-10T07:10:01;101930.339;;;8.1;unknown
73422;BME280;61637;47.760;-122.022;2023-05-10T07:12:01;101930.339;;;8.0;unknown
73422;BME280;61637;47.760;-122.022;2023-05-10T07:14:01;101930.339;;;7.9;unknown
73422;BME280;61637;47.760;-122.022;2023-05-10T07:16:01;101930.339;;;7.9;unknown
73422;BME280;61637;47.760;-122.022;2023-05-10T07:18:01;101930.339;;;7.9;unknown
73422;BME280;61637;47.760;-122.022;2023-05-10T07:20:01;101930.339;;;7.9;unknown
73422;BME280;61637;47.760;-122.022;2023-05-10T07:22:01;101930.339;;;7.9;unknown
73422;BME280;61637;47.760;-122.022;2023-05-10T07:24:01;101930.339;;;7.8;unknown
73422;BME280;61637;47.760;-122.022;2023-05-10T07:26:01;101930.339;;;7.8;unknown
73422;BME280;61637;47.760;-122.022;2023-05-10T07:28:01;101930.339;;;7.8;unknown
73422;BME280;61637;47.760;-122.022;2023-05-10T07:30:01;101930.339;;;7.8;unknown
73422;BME280;61637;47.760;-122.022;2023-05-10T07:32:01;101930.339;;;7.8;unknown
73422;BME280;61637;47.760;-122.022;2023-05-10T07:34:01;101930.339;;;7.8;unknown
73422;BME280;61637;47.760;-122.022;2023-05-10T07:36:01;101930.339;;;7.7;unknown
73422;BME280;61637;47.760;-122.022;2023-05-10T07:38:01;101930.339;;;7.7;unknown
73422;BME280;61637;47.760;-122.022;2023-05-10T07:40:01;101930.339;;;7.7;unknown
73422;BME280;61637;47.760;-122.022;2023-05-10T07:42:01;101930.339;;;7.7;unknown
73422;BME280;61637;47.760;-122.022;2023-05-10T07:44:01;101930.339;;;7.7;unknown
73422;BME280;61637;47.760;-122.022;2023-05-10T07:46:01;101930.339;;;7.7;unknown
73422;BME280;61637;47.760;-122.022;2023-05-10T07:48:01;101930.339;;;7.7;unknown
73422;BME280;61637;47.760;-122.022;2023-05-10T07:50:01;101930.339;;;7.7;unknown
73422;BME280;61637;47.760;-122.022;2023-05-10T07:52:01;101930.339;;;7.7;unknown
73422;BME280;61637;47.760;-122.022;2023-05-10T07:54:01;101930.339;;;7.7;unknown
73422;BME280;61637;47.760;-122.022;2023-05-10T07:56:19;101930.339;;;7.7;unknown
73422;BME280;61637;47.760;-122.022;2023-05-10T07:58:01;101930.339;;;7.7;unknown
73422;BME280;61637;47.760;-122.022;2023-05-10T08:00:01;101930.339;;;7.6;unknown
73422;BME280;61637;47.760;-122.022;2023-05-10T08:02:01;101930.339;;;7.6;unknown
73422;BME280;61637;47.760;-122.022;2023-05-10T08:04:01;101930.339;;;7.6;unknown
73422;BME280;61637;47.760;-122.022;2023-05-10T08:06:01;101930.339;;;7.6;unknown
73422;BME280;61637;47.760;-122.022;2023-05-10T08:08:01;101930.339;;;7.6;unknown
73422;BME280;61637;47.760;-122.022;2023-05-10T08:10:01;101930.339;;;7.6;unknown
73422;BME280;61637;47.760;-122.022;2023-05-10T08:12:01;101930.339;;;7.5;unknown
73422;BME280;61637;47.760;-122.022;2023-05-10T08:14:01;101930.339;;;7.4;unknown
73422;BME280;61637;47.760;-122.022;2023-05-10T08:16:01;101930.339;;;7.5;unknown
73422;BME280;61637;47.760;-122.022;2023-05-10T08:18:01;101930.339;;;7.5;unknown
73422;BME280;61637;47.760;-122.022;2023-05-10T08:20:01;101930.339;;;7.4;unknown
73422;BME280;61637;47.760;-122.022;2023-05-10T08:22:01;101930.339;;;7.4;unknown
73422;BME280;61637;47.760;-122.022;2023-05-10T08:24:01;101930.339;;;7.4;unknown
73422;BME280;61637;47.760;-122.022;2023-05-10T08:26:01;101930.339;;;7.4;unknown
73422;BME280;61637;47.760;-122.022;2023-05-10T08:28:01;101930.339;;;7.4;unknown
73422;BME280;61637;47.760;-122.022;2023-05-10T08:30:01;101930.339;;;7.4;unknown
73422;BME280;61637;47.760;-122.022;2023-05-10T08:32:01;101930.339;;;7.4;unknown
73422;BME280;61637;47.760;-122.022;2023-05-10T08:34:01;101930.339;;;7.4;unknown
73422;BME280;61637;47.760;-122.022;2023-05-10T08:36:01;101930.339;;;7.3;unknown
73422;BME280;61637;47.760;-122.022;2023-05-10T08:38:01;101930.339;;;7.3;unknown
73422;BME280;61637;47.760;-122.022;2023-05-10T08:40:01;101930.339;;;7.3;unknown
73422;BME280;61637;47.760;-122.022;2023-05-10T08:42:02;101930.339;;;7.3;unknown
73422;BME280;61637;47.760;-122.022;2023-05-10T08:44:01;101930.339;;;7.3;unknown
73422;BME280;61637;47.760;-122.022;2023-05-10T08:46:01;101930.339;;;7.3;unknown
73422;BME280;61637;47.760;-122.022;2023-05-10T08:48:01;101930.339;;;7.3;unknown
73422;BME280;61637;47.760;-122.022;2023-05-10T08:50:01;101930.339;;;7.3;unknown
73422;BME280;61637;47.760;-122.022;2023-05-10T08:52:02;101930.339;;;7.2;unknown
73422;BME280;61637;47.760;-122.022;2023-05-10T08:54:01;101930.339;;;7.2;unknown
73422;BME280;61637;47.760;-122.022;2023-05-10T08:56:01;101930.339;;;7.2;unknown
73422;BME280;61637;47.760;-122.022;2023-05-10T08:58:01;101930.339;;;7.2;unknown
73422;BME280;61637;47.760;-122.022;2023-05-10T09:00:01;101930.339;;;7.2;unknown
73422;BME280;61637;47.760;-122.022;2023-05-10T09:02:01;101930.339;;;7.2;unknown
73422;BME280;61637;47.760;-122.022;2023-05-10T09:04:01;101930.339;;;7.2;unknown
73422;BME280;61637;47.760;-122.022;2023-05-10T09:06:01;101930.339;;;7.2;unknown
73422;BME280;61637;47.760;-122.022;2023-05-10T09:08:01;101930.339;;;7.1;unknown
73422;BME280;61637;47.760;-122.022;2023-05-10T09:10:01;101930.339;;;7.1;unknown
73422;BME280;61637;47.760;-122.022;2023-05-10T09:12:01;101930.339;;;7.1;unknown
73422;BME280;61637;47.760;-122.022;2023-05-10T09:14:01;101930.339;;;7.1;unknown
73422;BME280;61637;47.760;-122.022;2023-05-10T09:16:01;101930.339;;;7.1;unknown
73422;BME280;61637;47.760;-122.022;2023-05-10T09:18:01;101930.339;;;7.1;unknown
73422;BME280;61637;47.760;-122.022;2023-05-10T09:20:01;101930.339;;;7.1;unknown
73422;BME280;61637;47.760;-122.022;2023-05-10T09:22:01;101930.339;;;7.1;unknown
73422;BME280;61637;47.760;-122.022;2023-05-10T09:24:02;101930.339;;;7.1;unknown
73422;BME280;61637;47.760;-122.022;2023-05-10T09:26:02;101930.339;;;7.0;unknown
73422;BME280;61637;47.760;-122.022;2023-05-10T09:28:01;101930.339;;;7.0;unknown
73422;BME280;61637;47.760;-122.022;2023-05-10T09:30:01;101930.339;;;7.0;unknown
73422;BME280;61637;47.760;-122.022;2023-05-10T09:32:01;101930.339;;;6.9;unknown
73422;BME280;61637;47.760;-122.022;2023-05-10T09:34:01;101930.339;;;6.9;unknown
73422;BME280;61637;47.760;-122.022;2023-05-10T09:36:06;101930.339;;;6.9;unknown
73422;BME280;61637;47.760;-122.022;2023-05-10T09:38:01;101930.339;;;6.9;unknown
73422;BME280;61637;47.760;-122.022;2023-05-10T09:40:01;101930.339;;;6.9;unknown
73422;BME280;61637;47.760;-122.022;2023-05-10T09:42:02;101930.339;;;6.9;unknown
73422;BME280;61637;47.760;-122.022;2023-05-10T09:44:01;101930.339;;;6.9;unknown
73422;BME280;61637;47.760;-122.022;2023-05-10T09:46:01;101930.339;;;6.9;unknown
73422;BME280;61637;47.760;-122.022;2023-05-10T09:48:01;101930.339;;;6.9;unknown
73422;BME280;61637;47.760;-122.022;2023-05-10T09:50:01;101930.339;;;6.8;unknown